Radisson, New York
Current Conditions -  °F | °C
As of 2:54 PM on Saturday 25 Oct 2014 (Local Time) from KFZY Reporting Station
Overcast Overcast  
Wind Chill: 63°   Ceiling: 6000
Heat Index: 63°   Visibility: 10mi
Dew Point: 46°   Wind: 12mph
Humidity: 54%   Direction: 200°SSW
Pressure: 29.58"   Gusts: NA
Location:  43.1825°N, 76.3664°W
Report Text: KFZY 251854Z AUTO 20010KT 10SM BKN060 OVC080 17/08 A2958 RMK AO2 SLP017 T01720078
Loading
Personal Weather Stations






























Interactive Weather Map
Tropical Storm Tracking
New forecast layout! Learn more

10-Day Weather Forecast

Advertisements
Track Severe Weather on mobile